createdAt,value
2024-01-12T00:00:47.825Z,-5.72
2024-01-12T00:05:49.573Z,-5.65
2024-01-12T00:10:51.171Z,-5.71
2024-01-12T00:15:52.771Z,-5.90
2024-01-12T00:20:54.476Z,-5.95
2024-01-12T00:26:00.208Z,-5.96
2024-01-12T00:31:02.014Z,-5.86
2024-01-12T00:36:03.721Z,-5.81
2024-01-12T00:41:05.297Z,-5.70
2024-01-12T00:46:06.858Z,-5.34
2024-01-12T00:51:11.916Z,-5.12
2024-01-12T00:56:14.346Z,-5.08
2024-01-12T01:01:15.939Z,-5.11
2024-01-12T01:06:17.797Z,-5.08
2024-01-12T01:11:19.419Z,-5.16
2024-01-12T01:16:21.220Z,-5.17
2024-01-12T01:21:22.788Z,-5.34
2024-01-12T01:26:24.373Z,-5.54
2024-01-12T01:31:26.385Z,-5.55
2024-01-12T01:36:27.959Z,-5.55
2024-01-12T01:41:29.541Z,-5.74
2024-01-12T01:46:31.151Z,-5.97
2024-01-12T01:51:32.796Z,-5.89
2024-01-12T01:56:34.408Z,-5.68
2024-01-12T02:01:35.975Z,-5.57
2024-01-12T02:06:38.056Z,-5.60
2024-01-12T02:11:39.716Z,-5.82
2024-01-12T02:16:41.434Z,-5.88
2024-01-12T02:21:42.983Z,-6.11
2024-01-12T02:26:44.578Z,-6.26
2024-01-12T02:31:46.329Z,-6.15
2024-01-12T02:36:47.863Z,-6.12
2024-01-12T02:41:49.442Z,-6.04
2024-01-12T02:46:51.172Z,-6.12
2024-01-12T02:51:52.857Z,-6.32
2024-01-12T02:56:54.604Z,-6.49
2024-01-12T03:01:56.210Z,-6.63
2024-01-12T03:06:57.762Z,-6.75
2024-01-12T03:11:59.465Z,-6.94
2024-01-12T03:17:01.584Z,-6.94
2024-01-12T03:22:03.192Z,-6.92
2024-01-12T03:27:05.399Z,-7.12
2024-01-12T03:32:07.117Z,-7.18
2024-01-12T03:37:09.064Z,-7.28
2024-01-12T03:42:12.101Z,-7.21
2024-01-12T03:47:13.750Z,-7.09
2024-01-12T03:52:16.612Z,-7.04
2024-01-12T03:57:18.385Z,-7.08
2024-01-12T04:02:20.082Z,-6.95
2024-01-12T04:07:21.783Z,-7.01
2024-01-12T04:12:23.376Z,-6.91
2024-01-12T04:17:24.980Z,-6.92
2024-01-12T04:22:26.681Z,-6.99
2024-01-12T04:27:29.482Z,-7.00
2024-01-12T04:32:31.167Z,-6.95
2024-01-12T04:37:32.774Z,-6.90
2024-01-12T04:42:34.539Z,-6.81
2024-01-12T04:47:36.232Z,-6.76
2024-01-12T04:52:37.863Z,-6.77
2024-01-12T04:57:39.578Z,-6.90
2024-01-12T05:02:41.638Z,-6.93
2024-01-12T05:07:43.359Z,-6.92
2024-01-12T05:12:44.960Z,-7.04
2024-01-12T05:17:46.602Z,-7.10
2024-01-12T05:22:48.723Z,-7.20
2024-01-12T05:27:50.346Z,-7.21
2024-01-12T05:32:52.150Z,-7.20
2024-01-12T05:37:53.830Z,-7.25
2024-01-12T05:42:55.439Z,-7.32
2024-01-12T05:47:57.031Z,-7.33
2024-01-12T05:52:59.009Z,-7.37
2024-01-12T05:58:00.721Z,-7.39
2024-01-12T06:03:02.367Z,-7.44
2024-01-12T06:08:04.125Z,-7.57
2024-01-12T06:13:05.703Z,-7.71
2024-01-12T06:18:07.609Z,-7.78
2024-01-12T06:23:09.318Z,-7.79
2024-01-12T06:28:11.950Z,-7.89
2024-01-12T06:33:15.627Z,-7.89
2024-01-12T06:38:17.512Z,-7.94
2024-01-12T06:43:19.134Z,-7.80
2024-01-12T06:48:21.811Z,-7.87
2024-01-12T06:53:23.546Z,-8.05
2024-01-12T06:58:25.094Z,-8.35
2024-01-12T07:03:26.775Z,-8.46
2024-01-12T07:08:28.468Z,-8.37
2024-01-12T07:13:30.116Z,-8.37
2024-01-12T07:18:31.877Z,-8.42
2024-01-12T07:23:33.594Z,-8.41
2024-01-12T07:28:35.204Z,-8.38
2024-01-12T07:33:37.235Z,-8.42
2024-01-12T07:38:38.883Z,-8.53
2024-01-12T07:43:40.988Z,-8.54
2024-01-12T07:48:42.704Z,-8.31
2024-01-12T07:53:44.445Z,-8.39
2024-01-12T07:58:46.635Z,-8.37
2024-01-12T08:03:48.509Z,-8.41
2024-01-12T08:08:50.241Z,-8.41
2024-01-12T08:13:51.842Z,-8.29
2024-01-12T08:18:53.449Z,-8.16
2024-01-12T08:23:55.518Z,-8.24
2024-01-12T08:29:02.534Z,-8.22
2024-01-12T08:34:04.247Z,-7.99
2024-01-12T08:39:06.261Z,-7.83
2024-01-12T08:44:08.084Z,-7.72
2024-01-12T08:49:09.839Z,-7.55
2024-01-12T08:54:11.705Z,-7.33
2024-01-12T08:59:13.304Z,-7.36
2024-01-12T09:04:15.148Z,-7.16
2024-01-12T09:09:17.646Z,-7.04
2024-01-12T09:14:19.346Z,-6.90
2024-01-12T09:19:21.060Z,-6.87
2024-01-12T09:24:22.707Z,-6.54
2024-01-12T09:29:24.349Z,-6.38
2024-01-12T09:34:26.063Z,-6.23
2024-01-12T09:39:28.232Z,-6.17
2024-01-12T09:44:30.611Z,-6.01
2024-01-12T09:49:32.534Z,-5.82
2024-01-12T09:54:34.878Z,-5.65
2024-01-12T09:59:36.908Z,-5.52
2024-01-12T10:04:38.721Z,-5.37
2024-01-12T10:09:41.110Z,-5.33
2024-01-12T10:14:42.743Z,-5.19
2024-01-12T10:19:45.082Z,-5.13
2024-01-12T10:24:46.880Z,-5.21
2024-01-12T10:29:48.497Z,-5.07
2024-01-12T10:34:50.701Z,-4.87
2024-01-12T10:39:52.356Z,-4.84
2024-01-12T10:44:54.045Z,-4.92
2024-01-12T10:50:02.945Z,-4.92
2024-01-12T10:55:06.137Z,-4.89
2024-01-12T11:00:09.702Z,-4.81
2024-01-12T11:05:11.970Z,-4.72
2024-01-12T11:10:13.763Z,-4.41
2024-01-12T11:15:15.539Z,-4.48
2024-01-12T11:20:21.124Z,-4.43
2024-01-12T11:25:22.992Z,-4.37
2024-01-12T11:30:26.431Z,-4.22
2024-01-12T11:35:30.215Z,-4.20
2024-01-12T11:40:34.402Z,-4.23
2024-01-12T11:45:40.789Z,-4.25
2024-01-12T11:50:43.003Z,-3.95
2024-01-12T11:55:44.589Z,-4.05
2024-01-12T12:00:49.958Z,-4.07
2024-01-12T12:05:51.875Z,-4.13
2024-01-12T12:10:53.826Z,-4.13
2024-01-12T12:15:56.241Z,-4.28
2024-01-12T12:20:58.922Z,-4.45
2024-01-12T12:26:00.866Z,-4.07
2024-01-12T12:31:03.344Z,-3.95
2024-01-12T12:36:09.715Z,-4.16
2024-01-12T12:41:12.796Z,-3.98
2024-01-12T12:46:14.449Z,-3.76
2024-01-12T12:51:16.112Z,-4.04
2024-01-12T12:56:17.713Z,-3.89
2024-01-12T13:01:19.278Z,-3.53
2024-01-12T13:06:20.937Z,-3.29
2024-01-12T13:11:22.510Z,-3.39
2024-01-12T13:16:24.120Z,-3.45
2024-01-12T13:21:25.964Z,-3.63
2024-01-12T13:26:27.784Z,-3.81
2024-01-12T13:31:29.358Z,-3.84
2024-01-12T13:36:30.981Z,-3.81
2024-01-12T13:41:32.612Z,-3.96
2024-01-12T13:46:34.252Z,-3.85
2024-01-12T13:51:35.998Z,-4.11
2024-01-12T13:56:37.592Z,-3.82
2024-01-12T14:01:39.295Z,-4.13
2024-01-12T14:06:41.564Z,-4.09
2024-01-12T14:11:43.329Z,-4.06
2024-01-12T14:16:44.914Z,-4.08
2024-01-12T14:21:46.454Z,-3.85
2024-01-12T14:26:48.506Z,-3.67
2024-01-12T14:31:50.113Z,-3.72
2024-01-12T14:36:51.733Z,-3.72
2024-01-12T14:41:53.866Z,-3.83
2024-01-12T14:46:55.465Z,-3.71
2024-01-12T14:51:57.425Z,-3.94
2024-01-12T14:56:59.046Z,-4.15
2024-01-12T15:02:00.605Z,-4.09
2024-01-12T15:07:02.789Z,-4.44
2024-01-12T15:12:07.288Z,-4.25
2024-01-12T15:17:09.248Z,-4.18
2024-01-12T15:22:10.852Z,-4.12
2024-01-12T15:27:12.547Z,-4.11
2024-01-12T15:32:14.196Z,-4.13
2024-01-12T15:37:15.818Z,-4.26
2024-01-12T15:42:17.428Z,-4.27
2024-01-12T15:47:19.040Z,-4.21
2024-01-12T15:52:20.600Z,-4.12
2024-01-12T15:57:22.304Z,-4.21
2024-01-12T16:02:24.563Z,-4.13
2024-01-12T16:07:26.751Z,-4.30
2024-01-12T16:12:28.455Z,-4.50
2024-01-12T16:17:30.263Z,-4.49
2024-01-12T16:22:31.927Z,-4.59
2024-01-12T16:27:33.491Z,-4.67
2024-01-12T16:32:35.475Z,-4.48
2024-01-12T16:37:37.212Z,-4.46
2024-01-12T16:42:38.853Z,-4.62
2024-01-12T16:47:40.503Z,-4.73
2024-01-12T16:52:42.130Z,-4.67
2024-01-12T16:57:43.673Z,-4.61
2024-01-12T17:02:45.323Z,-4.64
2024-01-12T17:07:47.900Z,-4.68
2024-01-12T17:12:49.442Z,-4.62
2024-01-12T17:17:51.068Z,-4.64
2024-01-12T17:22:52.655Z,-4.64
2024-01-12T17:27:54.248Z,-4.58
2024-01-12T17:32:56.898Z,-4.55
2024-01-12T17:38:25.583Z,-4.70
2024-01-12T17:43:46.042Z,-4.77
2024-01-12T17:48:47.832Z,-4.73
2024-01-12T17:53:50.799Z,-4.64
2024-01-12T17:58:52.507Z,-4.67
2024-01-12T18:03:54.080Z,-4.79
2024-01-12T18:08:57.758Z,-4.55
2024-01-12T18:13:59.459Z,-4.55
2024-01-12T18:19:01.319Z,-4.58
2024-01-12T18:24:04.207Z,-4.70
2024-01-12T18:29:05.809Z,-4.69
2024-01-12T18:34:07.509Z,-4.70
2024-01-12T18:39:09.264Z,-4.75
2024-01-12T18:44:11.885Z,-4.66
2024-01-12T18:49:15.813Z,-4.75
2024-01-12T18:54:19.437Z,-4.61
2024-01-12T18:59:21.148Z,-4.50
2024-01-12T19:04:23.762Z,-4.45
2024-01-12T19:09:25.346Z,-4.52
2024-01-12T19:14:26.941Z,-4.24
2024-01-12T19:19:28.672Z,-4.17
2024-01-12T19:24:30.315Z,-4.25
2024-01-12T19:29:33.869Z,-4.36
2024-01-12T19:34:50.056Z,-4.51
2024-01-12T19:39:51.693Z,-4.62
2024-01-12T19:44:53.396Z,-4.59
2024-01-12T19:49:55.000Z,-4.48
2024-01-12T19:54:56.535Z,-4.46
2024-01-12T19:59:58.127Z,-4.49
2024-01-12T20:05:00.275Z,-4.25
2024-01-12T20:10:02.433Z,-4.40
2024-01-12T20:15:05.355Z,-4.40
2024-01-12T20:20:08.414Z,-4.31
2024-01-12T20:25:10.274Z,-4.44
2024-01-12T20:30:12.693Z,-4.40
2024-01-12T20:35:14.548Z,-4.28
2024-01-12T20:40:16.142Z,-4.46
2024-01-12T20:45:18.038Z,-4.68
2024-01-12T20:50:19.894Z,-4.72
2024-01-12T20:55:21.451Z,-4.75
2024-01-12T21:00:23.290Z,-4.62
2024-01-12T21:05:25.653Z,-4.62
2024-01-12T21:10:27.413Z,-4.75
2024-01-12T21:15:31.609Z,-4.71
2024-01-12T21:20:33.260Z,-4.69
2024-01-12T21:25:34.862Z,-4.72
2024-01-12T21:30:36.504Z,-4.80
2024-01-12T21:35:38.146Z,-4.67
2024-01-12T21:40:39.863Z,-4.76
2024-01-12T21:45:41.758Z,-4.67
2024-01-12T21:50:43.407Z,-4.88
2024-01-12T21:55:45.046Z,-4.83
2024-01-12T22:00:46.653Z,-4.83
2024-01-12T22:05:48.398Z,-4.83
2024-01-12T22:10:50.092Z,-4.78
2024-01-12T22:15:51.717Z,-4.90
2024-01-12T22:20:53.864Z,-4.93
2024-01-12T22:25:55.530Z,-4.95
2024-01-12T22:30:57.184Z,-4.86
2024-01-12T22:35:58.777Z,-4.85
2024-01-12T22:41:00.373Z,-4.88
2024-01-12T22:46:02.295Z,-4.89
2024-01-12T22:51:04.159Z,-4.60
2024-01-12T22:56:05.929Z,-4.56
2024-01-12T23:01:07.513Z,-4.60
2024-01-12T23:06:10.441Z,-4.56
2024-01-12T23:11:12.045Z,-4.53
2024-01-12T23:16:13.673Z,-4.58
2024-01-12T23:21:15.334Z,-4.68
2024-01-12T23:26:17.029Z,-4.63
2024-01-12T23:31:18.768Z,-4.60
2024-01-12T23:36:21.857Z,-4.61
2024-01-12T23:41:31.039Z,-4.69
2024-01-12T23:46:32.941Z,-4.62
2024-01-12T23:51:34.502Z,-4.72
2024-01-12T23:56:36.099Z,-4.69
